sensor_id;sensor_type;location;lat;lon;timestamp;P1;P2;P0
76679;PMS5003;65597;51.520;-0.224;2023-03-14T00:00:39;10;4;
76679;PMS5003;65597;51.520;-0.224;2023-03-14T00:03:04;10;6;
76679;PMS5003;65597;51.520;-0.224;2023-03-14T00:05:31;18;12;
76679;PMS5003;65597;51.520;-0.224;2023-03-14T00:07:56;12;7;
76679;PMS5003;65597;51.520;-0.224;2023-03-14T00:10:21;14;8;
76679;PMS5003;65597;51.520;-0.224;2023-03-14T00:12:46;8;7;
76679;PMS5003;65597;51.520;-0.224;2023-03-14T00:15:12;13;5;
76679;PMS5003;65597;51.520;-0.224;2023-03-14T00:17:38;10;6;
76679;PMS5003;65597;51.520;-0.224;2023-03-14T00:20:03;6;6;
76679;PMS5003;65597;51.520;-0.224;2023-03-14T00:22:27;10;5;
76679;PMS5003;65597;51.520;-0.224;2023-03-14T00:24:53;9;4;
76679;PMS5003;65597;51.520;-0.224;2023-03-14T00:27:18;8;6;
76679;PMS5003;65597;51.520;-0.224;2023-03-14T00:29:45;11;5;
76679;PMS5003;65597;51.520;-0.224;2023-03-14T00:32:09;10;4;
76679;PMS5003;65597;51.520;-0.224;2023-03-14T00:34:35;5;5;
76679;PMS5003;65597;51.520;-0.224;2023-03-14T00:37:00;5;4;
76679;PMS5003;65597;51.520;-0.224;2023-03-14T00:39:26;7;5;
76679;PMS5003;65597;51.520;-0.224;2023-03-14T00:41:52;5;3;
76679;PMS5003;65597;51.520;-0.224;2023-03-14T00:44:16;8;4;
76679;PMS5003;65597;51.520;-0.224;2023-03-14T00:46:42;4;3;
76679;PMS5003;65597;51.520;-0.224;2023-03-14T00:49:07;6;5;
76679;PMS5003;65597;51.520;-0.224;2023-03-14T00:51:32;7;4;
76679;PMS5003;65597;51.520;-0.224;2023-03-14T00:53:59;6;3;
76679;PMS5003;65597;51.520;-0.224;2023-03-14T00:56:24;8;6;
76679;PMS5003;65597;51.520;-0.224;2023-03-14T00:58:52;7;5;
76679;PMS5003;65597;51.520;-0.224;2023-03-14T01:01:15;4;3;
76679;PMS5003;65597;51.520;-0.224;2023-03-14T01:03:39;6;2;
76679;PMS5003;65597;51.520;-0.224;2023-03-14T01:06:08;0;0;
76679;PMS5003;65597;51.520;-0.224;2023-03-14T01:08:30;1;1;
76679;PMS5003;65597;51.520;-0.224;2023-03-14T01:10:56;1;1;
76679;PMS5003;65597;51.520;-0.224;2023-03-14T01:13:21;2;1;
76679;PMS5003;65597;51.520;-0.224;2023-03-14T01:15:47;1;1;
76679;PMS5003;65597;51.520;-0.224;2023-03-14T01:18:13;1;1;
76679;PMS5003;65597;51.520;-0.224;2023-03-14T01:20:38;0;0;
76679;PMS5003;65597;51.520;-0.224;2023-03-14T01:23:03;0;0;
76679;PMS5003;65597;51.520;-0.224;2023-03-14T01:25:29;0;0;
76679;PMS5003;65597;51.520;-0.224;2023-03-14T01:27:54;0;0;
76679;PMS5003;65597;51.520;-0.224;2023-03-14T01:30:20;0;0;
76679;PMS5003;65597;51.520;-0.224;2023-03-14T01:32:45;0;0;
76679;PMS5003;65597;51.520;-0.224;2023-03-14T01:35:11;0;0;
76679;PMS5003;65597;51.520;-0.224;2023-03-14T01:37:37;0;0;
76679;PMS5003;65597;51.520;-0.224;2023-03-14T01:40:02;1;1;
76679;PMS5003;65597;51.520;-0.224;2023-03-14T01:42:29;1;1;
76679;PMS5003;65597;51.520;-0.224;2023-03-14T01:44:54;0;0;
76679;PMS5003;65597;51.520;-0.224;2023-03-14T01:47:19;0;0;
76679;PMS5003;65597;51.520;-0.224;2023-03-14T01:49:44;1;1;
76679;PMS5003;65597;51.520;-0.224;2023-03-14T01:52:10;0;0;
76679;PMS5003;65597;51.520;-0.224;2023-03-14T01:54:37;1;1;
76679;PMS5003;65597;51.520;-0.224;2023-03-14T01:57:02;1;1;
76679;PMS5003;65597;51.520;-0.224;2023-03-14T01:59:26;1;1;
76679;PMS5003;65597;51.520;-0.224;2023-03-14T02:01:52;2;2;
76679;PMS5003;65597;51.520;-0.224;2023-03-14T02:04:18;3;2;
76679;PMS5003;65597;51.520;-0.224;2023-03-14T02:06:46;2;2;
76679;PMS5003;65597;51.520;-0.224;2023-03-14T02:09:08;1;1;
76679;PMS5003;65597;51.520;-0.224;2023-03-14T02:11:34;3;1;
76679;PMS5003;65597;51.520;-0.224;2023-03-14T02:14:00;2;2;
76679;PMS5003;65597;51.520;-0.224;2023-03-14T02:16:25;3;3;
76679;PMS5003;65597;51.520;-0.224;2023-03-14T02:18:52;2;2;
76679;PMS5003;65597;51.520;-0.224;2023-03-14T02:21:17;3;3;
76679;PMS5003;65597;51.520;-0.224;2023-03-14T02:23:43;3;3;
76679;PMS5003;65597;51.520;-0.224;2023-03-14T02:26:08;1;1;
76679;PMS5003;65597;51.520;-0.224;2023-03-14T02:28:33;2;1;
76679;PMS5003;65597;51.520;-0.224;2023-03-14T02:30:58;1;1;
76679;PMS5003;65597;51.520;-0.224;2023-03-14T02:33:24;2;2;
76679;PMS5003;65597;51.520;-0.224;2023-03-14T02:35:50;1;1;
76679;PMS5003;65597;51.520;-0.224;2023-03-14T02:38:16;1;1;
76679;PMS5003;65597;51.520;-0.224;2023-03-14T02:40:40;1;1;
76679;PMS5003;65597;51.520;-0.224;2023-03-14T02:43:06;1;0;
76679;PMS5003;65597;51.520;-0.224;2023-03-14T02:45:34;1;1;
76679;PMS5003;65597;51.520;-0.224;2023-03-14T02:47:57;3;1;
76679;PMS5003;65597;51.520;-0.224;2023-03-14T02:50:23;4;1;
76679;PMS5003;65597;51.520;-0.224;2023-03-14T02:52:48;1;1;
76679;PMS5003;65597;51.520;-0.224;2023-03-14T02:55:13;1;1;
76679;PMS5003;65597;51.520;-0.224;2023-03-14T02:57:39;1;1;
76679;PMS5003;65597;51.520;-0.224;2023-03-14T03:00:05;2;0;
76679;PMS5003;65597;51.520;-0.224;2023-03-14T03:02:30;1;1;
76679;PMS5003;65597;51.520;-0.224;2023-03-14T03:04:55;1;1;
76679;PMS5003;65597;51.520;-0.224;2023-03-14T03:07:21;1;0;
76679;PMS5003;65597;51.520;-0.224;2023-03-14T03:09:46;1;1;
76679;PMS5003;65597;51.520;-0.224;2023-03-14T03:12:12;1;0;
76679;PMS5003;65597;51.520;-0.224;2023-03-14T03:14:37;1;1;
76679;PMS5003;65597;51.520;-0.224;2023-03-14T03:17:03;2;1;
76679;PMS5003;65597;51.520;-0.224;2023-03-14T03:19:29;1;1;
76679;PMS5003;65597;51.520;-0.224;2023-03-14T03:21:54;2;1;
76679;PMS5003;65597;51.520;-0.224;2023-03-14T03:24:19;1;1;
76679;PMS5003;65597;51.520;-0.224;2023-03-14T03:26:45;1;1;
76679;PMS5003;65597;51.520;-0.224;2023-03-14T03:29:11;1;1;
76679;PMS5003;65597;51.520;-0.224;2023-03-14T03:31:37;5;5;
76679;PMS5003;65597;51.520;-0.224;2023-03-14T03:34:02;1;1;
76679;PMS5003;65597;51.520;-0.224;2023-03-14T03:36:27;0;0;
76679;PMS5003;65597;51.520;-0.224;2023-03-14T03:38:53;2;1;
76679;PMS5003;65597;51.520;-0.224;2023-03-14T03:41:18;1;1;
76679;PMS5003;65597;51.520;-0.224;2023-03-14T03:43:44;1;1;
76679;PMS5003;65597;51.520;-0.224;2023-03-14T03:46:09;1;1;
76679;PMS5003;65597;51.520;-0.224;2023-03-14T03:48:35;1;1;
76679;PMS5003;65597;51.520;-0.224;2023-03-14T03:51:01;1;1;
76679;PMS5003;65597;51.520;-0.224;2023-03-14T03:53:26;1;1;
76679;PMS5003;65597;51.520;-0.224;2023-03-14T03:55:52;1;1;
76679;PMS5003;65597;51.520;-0.224;2023-03-14T03:58:17;1;1;
76679;PMS5003;65597;51.520;-0.224;2023-03-14T04:00:43;1;1;
76679;PMS5003;65597;51.520;-0.224;2023-03-14T04:03:08;1;1;
76679;PMS5003;65597;51.520;-0.224;2023-03-14T04:05:34;2;2;
76679;PMS5003;65597;51.520;-0.224;2023-03-14T04:08:00;1;1;
76679;PMS5003;65597;51.520;-0.224;2023-03-14T04:10:25;1;0;
76679;PMS5003;65597;51.520;-0.224;2023-03-14T04:12:51;0;0;
76679;PMS5003;65597;51.520;-0.224;2023-03-14T04:15:16;1;1;
76679;PMS5003;65597;51.520;-0.224;2023-03-14T04:17:42;1;1;
76679;PMS5003;65597;51.520;-0.224;2023-03-14T04:20:08;1;1;
76679;PMS5003;65597;51.520;-0.224;2023-03-14T04:22:33;3;1;
76679;PMS5003;65597;51.520;-0.224;2023-03-14T04:24:58;1;1;
76679;PMS5003;65597;51.520;-0.224;2023-03-14T04:27:24;1;1;
76679;PMS5003;65597;51.520;-0.224;2023-03-14T04:29:49;1;1;
76679;PMS5003;65597;51.520;-0.224;2023-03-14T04:32:15;2;1;
76679;PMS5003;65597;51.520;-0.224;2023-03-14T04:34:40;1;1;
76679;PMS5003;65597;51.520;-0.224;2023-03-14T04:37:06;3;2;
76679;PMS5003;65597;51.520;-0.224;2023-03-14T04:39:32;1;1;
76679;PMS5003;65597;51.520;-0.224;2023-03-14T04:41:57;3;1;
76679;PMS5003;65597;51.520;-0.224;2023-03-14T04:44:23;1;1;
76679;PMS5003;65597;51.520;-0.224;2023-03-14T04:46:48;1;1;
76679;PMS5003;65597;51.520;-0.224;2023-03-14T04:49:14;1;1;
76679;PMS5003;65597;51.520;-0.224;2023-03-14T04:51:39;2;1;
76679;PMS5003;65597;51.520;-0.224;2023-03-14T04:54:05;1;1;
76679;PMS5003;65597;51.520;-0.224;2023-03-14T04:56:32;1;1;
76679;PMS5003;65597;51.520;-0.224;2023-03-14T04:58:56;1;0;
76679;PMS5003;65597;51.520;-0.224;2023-03-14T05:01:21;1;1;
76679;PMS5003;65597;51.520;-0.224;2023-03-14T05:03:47;3;1;
76679;PMS5003;65597;51.520;-0.224;2023-03-14T05:06:12;1;1;
76679;PMS5003;65597;51.520;-0.224;2023-03-14T05:08:39;1;0;
76679;PMS5003;65597;51.520;-0.224;2023-03-14T05:11:04;1;1;
76679;PMS5003;65597;51.520;-0.224;2023-03-14T05:13:29;6;2;
76679;PMS5003;65597;51.520;-0.224;2023-03-14T05:18:20;3;2;
76679;PMS5003;65597;51.520;-0.224;2023-03-14T05:20:50;2;0;
76679;PMS5003;65597;51.520;-0.224;2023-03-14T05:23:11;3;2;
76679;PMS5003;65597;51.520;-0.224;2023-03-14T05:25:37;1;1;
76679;PMS5003;65597;51.520;-0.224;2023-03-14T05:28:02;2;1;
76679;PMS5003;65597;51.520;-0.224;2023-03-14T05:30:28;3;1;
76679;PMS5003;65597;51.520;-0.224;2023-03-14T05:32:53;2;2;
76679;PMS5003;65597;51.520;-0.224;2023-03-14T05:35:19;1;1;
76679;PMS5003;65597;51.520;-0.224;2023-03-14T05:37:44;2;1;
76679;PMS5003;65597;51.520;-0.224;2023-03-14T05:40:10;1;0;
76679;PMS5003;65597;51.520;-0.224;2023-03-14T05:42:35;0;0;
76679;PMS5003;65597;51.520;-0.224;2023-03-14T05:45:01;3;3;
76679;PMS5003;65597;51.520;-0.224;2023-03-14T05:47:27;2;1;
76679;PMS5003;65597;51.520;-0.224;2023-03-14T05:49:52;3;1;
76679;PMS5003;65597;51.520;-0.224;2023-03-14T05:52:18;1;1;
76679;PMS5003;65597;51.520;-0.224;2023-03-14T05:54:43;2;1;
76679;PMS5003;65597;51.520;-0.224;2023-03-14T05:57:09;1;1;
76679;PMS5003;65597;51.520;-0.224;2023-03-14T05:59:34;1;1;
76679;PMS5003;65597;51.520;-0.224;2023-03-14T06:02:00;1;0;
76679;PMS5003;65597;51.520;-0.224;2023-03-14T06:04:26;1;0;
76679;PMS5003;65597;51.520;-0.224;2023-03-14T06:06:51;2;2;
76679;PMS5003;65597;51.520;-0.224;2023-03-14T06:09:18;1;1;
76679;PMS5003;65597;51.520;-0.224;2023-03-14T06:11:42;0;0;
76679;PMS5003;65597;51.520;-0.224;2023-03-14T06:14:08;1;1;
76679;PMS5003;65597;51.520;-0.224;2023-03-14T06:16:33;2;2;
76679;PMS5003;65597;51.520;-0.224;2023-03-14T06:18:59;3;2;
76679;PMS5003;65597;51.520;-0.224;2023-03-14T06:21:25;1;1;
76679;PMS5003;65597;51.520;-0.224;2023-03-14T06:23:50;2;1;
76679;PMS5003;65597;51.520;-0.224;2023-03-14T06:26:16;1;1;
76679;PMS5003;65597;51.520;-0.224;2023-03-14T06:28:41;1;1;
76679;PMS5003;65597;51.520;-0.224;2023-03-14T06:31:07;2;1;
76679;PMS5003;65597;51.520;-0.224;2023-03-14T06:33:32;1;1;
76679;PMS5003;65597;51.520;-0.224;2023-03-14T06:35:58;2;1;
76679;PMS5003;65597;51.520;-0.224;2023-03-14T06:38:23;2;1;
76679;PMS5003;65597;51.520;-0.224;2023-03-14T06:40:49;1;1;
76679;PMS5003;65597;51.520;-0.224;2023-03-14T06:43:14;2;1;
76679;PMS5003;65597;51.520;-0.224;2023-03-14T06:45:40;1;1;
76679;PMS5003;65597;51.520;-0.224;2023-03-14T06:48:06;4;2;
76679;PMS5003;65597;51.520;-0.224;2023-03-14T06:50:31;1;0;
76679;PMS5003;65597;51.520;-0.224;2023-03-14T06:52:57;3;2;
76679;PMS5003;65597;51.520;-0.224;2023-03-14T06:55:22;1;1;
76679;PMS5003;65597;51.520;-0.224;2023-03-14T06:57:49;1;1;
76679;PMS5003;65597;51.520;-0.224;2023-03-14T07:00:14;3;2;
76679;PMS5003;65597;51.520;-0.224;2023-03-14T07:02:39;4;3;
76679;PMS5003;65597;51.520;-0.224;2023-03-14T07:05:05;3;2;
76679;PMS5003;65597;51.520;-0.224;2023-03-14T07:07:30;3;2;
76679;PMS5003;65597;51.520;-0.224;2023-03-14T07:09:55;1;1;
76679;PMS5003;65597;51.520;-0.224;2023-03-14T07:12:21;0;0;
76679;PMS5003;65597;51.520;-0.224;2023-03-14T07:14:47;2;2;
76679;PMS5003;65597;51.520;-0.224;2023-03-14T07:17:12;3;2;
76679;PMS5003;65597;51.520;-0.224;2023-03-14T07:19:38;2;1;
76679;PMS5003;65597;51.520;-0.224;2023-03-14T07:22:03;3;1;
76679;PMS5003;65597;51.520;-0.224;2023-03-14T07:24:29;1;1;
76679;PMS5003;65597;51.520;-0.224;2023-03-14T07:26:54;2;2;
76679;PMS5003;65597;51.520;-0.224;2023-03-14T07:29:20;3;2;
76679;PMS5003;65597;51.520;-0.224;2023-03-14T07:31:45;3;2;
76679;PMS5003;65597;51.520;-0.224;2023-03-14T07:34:12;1;1;
76679;PMS5003;65597;51.520;-0.224;2023-03-14T07:36:36;5;3;
76679;PMS5003;65597;51.520;-0.224;2023-03-14T07:39:02;2;2;
76679;PMS5003;65597;51.520;-0.224;2023-03-14T07:41:27;3;2;
76679;PMS5003;65597;51.520;-0.224;2023-03-14T07:43:53;2;2;
76679;PMS5003;65597;51.520;-0.224;2023-03-14T07:46:19;2;1;
76679;PMS5003;65597;51.520;-0.224;2023-03-14T07:48:44;2;2;
76679;PMS5003;65597;51.520;-0.224;2023-03-14T07:51:09;2;1;
76679;PMS5003;65597;51.520;-0.224;2023-03-14T07:53:35;2;2;
76679;PMS5003;65597;51.520;-0.224;2023-03-14T07:56:00;2;2;
76679;PMS5003;65597;51.520;-0.224;2023-03-14T07:58:27;2;1;
76679;PMS5003;65597;51.520;-0.224;2023-03-14T08:00:52;2;2;
76679;PMS5003;65597;51.520;-0.224;2023-03-14T08:03:17;2;2;
76679;PMS5003;65597;51.520;-0.224;2023-03-14T08:05:42;1;1;
76679;PMS5003;65597;51.520;-0.224;2023-03-14T08:08:08;2;2;
76679;PMS5003;65597;51.520;-0.224;2023-03-14T08:10:34;2;1;
76679;PMS5003;65597;51.520;-0.224;2023-03-14T08:12:59;1;1;
76679;PMS5003;65597;51.520;-0.224;2023-03-14T08:15:25;1;1;
76679;PMS5003;65597;51.520;-0.224;2023-03-14T08:17:51;1;1;
76679;PMS5003;65597;51.520;-0.224;2023-03-14T08:20:16;4;2;
76679;PMS5003;65597;51.520;-0.224;2023-03-14T08:22:42;1;1;
76679;PMS5003;65597;51.520;-0.224;2023-03-14T08:25:07;0;0;
76679;PMS5003;65597;51.520;-0.224;2023-03-14T08:27:33;1;1;
76679;PMS5003;65597;51.520;-0.224;2023-03-14T08:29:58;1;1;
76679;PMS5003;65597;51.520;-0.224;2023-03-14T08:32:24;1;1;
76679;PMS5003;65597;51.520;-0.224;2023-03-14T08:34:50;2;2;
76679;PMS5003;65597;51.520;-0.224;2023-03-14T08:37:20;1;1;
76679;PMS5003;65597;51.520;-0.224;2023-03-14T08:39:41;1;1;
76679;PMS5003;65597;51.520;-0.224;2023-03-14T08:42:07;2;2;
76679;PMS5003;65597;51.520;-0.224;2023-03-14T08:44:32;2;2;
76679;PMS5003;65597;51.520;-0.224;2023-03-14T08:46:58;2;2;
76679;PMS5003;65597;51.520;-0.224;2023-03-14T08:49:23;3;3;
76679;PMS5003;65597;51.520;-0.224;2023-03-14T08:51:49;2;2;
76679;PMS5003;65597;51.520;-0.224;2023-03-14T08:54:14;2;2;
76679;PMS5003;65597;51.520;-0.224;2023-03-14T08:56:40;2;1;
76679;PMS5003;65597;51.520;-0.224;2023-03-14T08:59:07;0;0;
76679;PMS5003;65597;51.520;-0.224;2023-03-14T09:01:31;0;0;
76679;PMS5003;65597;51.520;-0.224;2023-03-14T09:03:57;1;0;
76679;PMS5003;65597;51.520;-0.224;2023-03-14T09:06:22;0;0;
76679;PMS5003;65597;51.520;-0.224;2023-03-14T09:08:48;1;0;
76679;PMS5003;65597;51.520;-0.224;2023-03-14T09:11:15;1;0;
76679;PMS5003;65597;51.520;-0.224;2023-03-14T09:13:39;1;1;
76679;PMS5003;65597;51.520;-0.224;2023-03-14T09:16:05;4;3;
76679;PMS5003;65597;51.520;-0.224;2023-03-14T09:18:30;1;1;
76679;PMS5003;65597;51.520;-0.224;2023-03-14T09:20:56;1;1;
76679;PMS5003;65597;51.520;-0.224;2023-03-14T09:23:21;2;2;
76679;PMS5003;65597;51.520;-0.224;2023-03-14T09:25:47;2;2;
76679;PMS5003;65597;51.520;-0.224;2023-03-14T09:28:13;2;1;
76679;PMS5003;65597;51.520;-0.224;2023-03-14T09:30:38;3;3;
76679;PMS5003;65597;51.520;-0.224;2023-03-14T09:33:04;3;2;
76679;PMS5003;65597;51.520;-0.224;2023-03-14T09:35:30;2;2;
76679;PMS5003;65597;51.520;-0.224;2023-03-14T09:37:55;2;1;
76679;PMS5003;65597;51.520;-0.224;2023-03-14T09:40:21;2;2;
76679;PMS5003;65597;51.520;-0.224;2023-03-14T09:42:46;1;1;
76679;PMS5003;65597;51.520;-0.224;2023-03-14T09:45:12;4;2;
76679;PMS5003;65597;51.520;-0.224;2023-03-14T09:47:37;1;1;
76679;PMS5003;65597;51.520;-0.224;2023-03-14T09:50:03;5;3;
76679;PMS5003;65597;51.520;-0.224;2023-03-14T09:52:29;5;3;
76679;PMS5003;65597;51.520;-0.224;2023-03-14T09:54:54;3;3;
76679;PMS5003;65597;51.520;-0.224;2023-03-14T09:57:20;2;1;
76679;PMS5003;65597;51.520;-0.224;2023-03-14T09:59:45;2;2;
76679;PMS5003;65597;51.520;-0.224;2023-03-14T10:02:12;3;3;
76679;PMS5003;65597;51.520;-0.224;2023-03-14T10:04:36;5;4;
76679;PMS5003;65597;51.520;-0.224;2023-03-14T10:07:01;8;6;
76679;PMS5003;65597;51.520;-0.224;2023-03-14T10:09:27;3;2;
76679;PMS5003;65597;51.520;-0.224;2023-03-14T10:11:53;3;3;
76679;PMS5003;65597;51.520;-0.224;2023-03-14T10:16:44;4;4;
76679;PMS5003;65597;51.520;-0.224;2023-03-14T10:19:10;3;2;
76679;PMS5003;65597;51.520;-0.224;2023-03-14T10:21:36;2;1;
76679;PMS5003;65597;51.520;-0.224;2023-03-14T10:24:07;2;2;
76679;PMS5003;65597;51.520;-0.224;2023-03-14T10:26:26;1;1;
76679;PMS5003;65597;51.520;-0.224;2023-03-14T10:28:52;5;2;
76679;PMS5003;65597;51.520;-0.224;2023-03-14T10:31:17;1;1;
76679;PMS5003;65597;51.520;-0.224;2023-03-14T10:33:42;5;3;
76679;PMS5003;65597;51.520;-0.224;2023-03-14T10:38:34;4;3;
76679;PMS5003;65597;51.520;-0.224;2023-03-14T10:40:59;3;2;
76679;PMS5003;65597;51.520;-0.224;2023-03-14T10:43:25;5;3;
76679;PMS5003;65597;51.520;-0.224;2023-03-14T10:45:51;7;5;
76679;PMS5003;65597;51.520;-0.224;2023-03-14T10:48:19;2;2;
76679;PMS5003;65597;51.520;-0.224;2023-03-14T10:53:07;2;2;
76679;PMS5003;65597;51.520;-0.224;2023-03-14T10:57:58;2;1;
76679;PMS5003;65597;51.520;-0.224;2023-03-14T11:00:24;3;2;
76679;PMS5003;65597;51.520;-0.224;2023-03-14T11:02:54;2;2;
76679;PMS5003;65597;51.520;-0.224;2023-03-14T11:05:17;3;3;
76679;PMS5003;65597;51.520;-0.224;2023-03-14T11:07:40;2;1;
76679;PMS5003;65597;51.520;-0.224;2023-03-14T11:10:08;6;4;
76679;PMS5003;65597;51.520;-0.224;2023-03-14T11:12:35;3;2;
76679;PMS5003;65597;51.520;-0.224;2023-03-14T11:14:57;6;4;
76679;PMS5003;65597;51.520;-0.224;2023-03-14T11:17:23;1;1;
76679;PMS5003;65597;51.520;-0.224;2023-03-14T11:19:53;17;15;
76679;PMS5003;65597;51.520;-0.224;2023-03-14T11:22:14;5;3;
76679;PMS5003;65597;51.520;-0.224;2023-03-14T11:24:41;4;3;
76679;PMS5003;65597;51.520;-0.224;2023-03-14T11:27:05;3;3;
76679;PMS5003;65597;51.520;-0.224;2023-03-14T11:29:31;3;2;
76679;PMS5003;65597;51.520;-0.224;2023-03-14T11:31:55;4;3;
76679;PMS5003;65597;51.520;-0.224;2023-03-14T11:34:22;5;3;
76679;PMS5003;65597;51.520;-0.224;2023-03-14T11:36:46;4;3;
76679;PMS5003;65597;51.520;-0.224;2023-03-14T11:39:12;4;3;
76679;PMS5003;65597;51.520;-0.224;2023-03-14T11:41:38;4;3;
76679;PMS5003;65597;51.520;-0.224;2023-03-14T11:44:03;3;3;
76679;PMS5003;65597;51.520;-0.224;2023-03-14T11:46:28;4;4;
76679;PMS5003;65597;51.520;-0.224;2023-03-14T11:48:56;2;2;
76679;PMS5003;65597;51.520;-0.224;2023-03-14T11:51:20;6;4;
76679;PMS5003;65597;51.520;-0.224;2023-03-14T11:53:47;5;5;
76679;PMS5003;65597;51.520;-0.224;2023-03-14T11:56:10;7;5;
76679;PMS5003;65597;51.520;-0.224;2023-03-14T11:58:34;5;4;
76679;PMS5003;65597;51.520;-0.224;2023-03-14T12:01:02;3;3;
76679;PMS5003;65597;51.520;-0.224;2023-03-14T12:03:27;3;3;
76679;PMS5003;65597;51.520;-0.224;2023-03-14T12:05:54;4;2;
76679;PMS5003;65597;51.520;-0.224;2023-03-14T12:08:23;6;5;
76679;PMS5003;65597;51.520;-0.224;2023-03-14T12:10:43;4;3;
76679;PMS5003;65597;51.520;-0.224;2023-03-14T12:13:09;4;3;
76679;PMS5003;65597;51.520;-0.224;2023-03-14T12:15:33;4;3;
76679;PMS5003;65597;51.520;-0.224;2023-03-14T12:17:58;6;4;
76679;PMS5003;65597;51.520;-0.224;2023-03-14T12:20:24;2;2;
76679;PMS5003;65597;51.520;-0.224;2023-03-14T12:22:50;2;2;
76679;PMS5003;65597;51.520;-0.224;2023-03-14T12:25:18;6;3;
76679;PMS5003;65597;51.520;-0.224;2023-03-14T12:27:43;4;1;
76679;PMS5003;65597;51.520;-0.224;2023-03-14T12:30:13;4;2;
76679;PMS5003;65597;51.520;-0.224;2023-03-14T12:32:31;3;3;
76679;PMS5003;65597;51.520;-0.224;2023-03-14T12:34:57;3;3;
76679;PMS5003;65597;51.520;-0.224;2023-03-14T12:37:26;3;3;
76679;PMS5003;65597;51.520;-0.224;2023-03-14T12:39:50;5;3;
76679;PMS5003;65597;51.520;-0.224;2023-03-14T12:42:13;2;2;
76679;PMS5003;65597;51.520;-0.224;2023-03-14T12:44:44;2;2;
76679;PMS5003;65597;51.520;-0.224;2023-03-14T12:49:31;4;3;
76679;PMS5003;65597;51.520;-0.224;2023-03-14T12:51:58;3;2;
76679;PMS5003;65597;51.520;-0.224;2023-03-14T12:54:23;4;4;
76679;PMS5003;65597;51.520;-0.224;2023-03-14T12:56:50;2;2;
76679;PMS5003;65597;51.520;-0.224;2023-03-14T13:01:44;2;1;
76679;PMS5003;65597;51.520;-0.224;2023-03-14T13:04:03;1;1;
76679;PMS5003;65597;51.520;-0.224;2023-03-14T13:08:53;4;3;
76679;PMS5003;65597;51.520;-0.224;2023-03-14T13:11:19;5;4;
76679;PMS5003;65597;51.520;-0.224;2023-03-14T13:13:45;6;4;
76679;PMS5003;65597;51.520;-0.224;2023-03-14T13:16:10;5;3;
76679;PMS5003;65597;51.520;-0.224;2023-03-14T13:18:35;1;1;
76679;PMS5003;65597;51.520;-0.224;2023-03-14T13:21:02;3;1;
76679;PMS5003;65597;51.520;-0.224;2023-03-14T13:23:26;2;1;
76679;PMS5003;65597;51.520;-0.224;2023-03-14T13:25:51;3;3;
76679;PMS5003;65597;51.520;-0.224;2023-03-14T13:28:17;2;2;
76679;PMS5003;65597;51.520;-0.224;2023-03-14T13:30:43;2;2;
76679;PMS5003;65597;51.520;-0.224;2023-03-14T13:33:11;3;2;
76679;PMS5003;65597;51.520;-0.224;2023-03-14T13:35:38;2;1;
76679;PMS5003;65597;51.520;-0.224;2023-03-14T13:38:00;4;2;
76679;PMS5003;65597;51.520;-0.224;2023-03-14T13:40:30;2;2;
76679;PMS5003;65597;51.520;-0.224;2023-03-14T13:42:49;2;1;
76679;PMS5003;65597;51.520;-0.224;2023-03-14T13:45:15;1;1;
76679;PMS5003;65597;51.520;-0.224;2023-03-14T13:47:40;1;1;
76679;PMS5003;65597;51.520;-0.224;2023-03-14T13:50:12;2;2;
76679;PMS5003;65597;51.520;-0.224;2023-03-14T13:52:32;1;1;
76679;PMS5003;65597;51.520;-0.224;2023-03-14T13:54:57;3;1;
76679;PMS5003;65597;51.520;-0.224;2023-03-14T13:57:22;2;1;
76679;PMS5003;65597;51.520;-0.224;2023-03-14T14:02:15;2;2;
76679;PMS5003;65597;51.520;-0.224;2023-03-14T14:04:39;2;1;
76679;PMS5003;65597;51.520;-0.224;2023-03-14T14:07:06;2;1;
76679;PMS5003;65597;51.520;-0.224;2023-03-14T14:09:30;2;2;
76679;PMS5003;65597;51.520;-0.224;2023-03-14T14:11:55;3;2;
76679;PMS5003;65597;51.520;-0.224;2023-03-14T14:14:22;2;2;
76679;PMS5003;65597;51.520;-0.224;2023-03-14T14:16:46;3;1;
76679;PMS5003;65597;51.520;-0.224;2023-03-14T14:19:11;2;1;
76679;PMS5003;65597;51.520;-0.224;2023-03-14T14:21:37;1;1;
76679;PMS5003;65597;51.520;-0.224;2023-03-14T14:24:02;1;1;
76679;PMS5003;65597;51.520;-0.224;2023-03-14T14:26:28;3;3;
76679;PMS5003;65597;51.520;-0.224;2023-03-14T14:28:59;2;2;
76679;PMS5003;65597;51.520;-0.224;2023-03-14T14:31:20;1;1;
76679;PMS5003;65597;51.520;-0.224;2023-03-14T14:33:45;1;1;
76679;PMS5003;65597;51.520;-0.224;2023-03-14T14:36:17;1;1;
76679;PMS5003;65597;51.520;-0.224;2023-03-14T14:38:38;3;2;
76679;PMS5003;65597;51.520;-0.224;2023-03-14T14:41:01;3;2;
76679;PMS5003;65597;51.520;-0.224;2023-03-14T14:43:27;1;1;
76679;PMS5003;65597;51.520;-0.224;2023-03-14T14:45:52;2;2;
76679;PMS5003;65597;51.520;-0.224;2023-03-14T14:48:19;2;2;
76679;PMS5003;65597;51.520;-0.224;2023-03-14T14:55:34;2;1;
76679;PMS5003;65597;51.520;-0.224;2023-03-14T15:00:25;1;1;
76679;PMS5003;65597;51.520;-0.224;2023-03-14T15:02:51;2;2;
76679;PMS5003;65597;51.520;-0.224;2023-03-14T15:05:16;3;2;
76679;PMS5003;65597;51.520;-0.224;2023-03-14T15:07:42;2;1;
76679;PMS5003;65597;51.520;-0.224;2023-03-14T15:10:09;3;2;
76679;PMS5003;65597;51.520;-0.224;2023-03-14T15:12:32;3;1;
76679;PMS5003;65597;51.520;-0.224;2023-03-14T15:14:57;1;1;
76679;PMS5003;65597;51.520;-0.224;2023-03-14T15:17:23;2;2;
76679;PMS5003;65597;51.520;-0.224;2023-03-14T15:19:48;3;2;
76679;PMS5003;65597;51.520;-0.224;2023-03-14T15:22:13;5;1;
76679;PMS5003;65597;51.520;-0.224;2023-03-14T15:24:39;3;2;
76679;PMS5003;65597;51.520;-0.224;2023-03-14T15:27:08;2;2;
76679;PMS5003;65597;51.520;-0.224;2023-03-14T15:29:30;2;2;
76679;PMS5003;65597;51.520;-0.224;2023-03-14T15:31:55;4;3;
76679;PMS5003;65597;51.520;-0.224;2023-03-14T15:34:21;2;2;
76679;PMS5003;65597;51.520;-0.224;2023-03-14T15:36:46;3;3;
76679;PMS5003;65597;51.520;-0.224;2023-03-14T15:39:12;2;2;
76679;PMS5003;65597;51.520;-0.224;2023-03-14T15:41:37;2;1;
76679;PMS5003;65597;51.520;-0.224;2023-03-14T15:44:03;4;2;
76679;PMS5003;65597;51.520;-0.224;2023-03-14T15:46:28;3;2;
76679;PMS5003;65597;51.520;-0.224;2023-03-14T15:48:54;1;1;
76679;PMS5003;65597;51.520;-0.224;2023-03-14T15:51:20;3;2;
76679;PMS5003;65597;51.520;-0.224;2023-03-14T15:53:45;3;2;
76679;PMS5003;65597;51.520;-0.224;2023-03-14T15:56:11;2;2;
76679;PMS5003;65597;51.520;-0.224;2023-03-14T15:58:36;3;2;
76679;PMS5003;65597;51.520;-0.224;2023-03-14T16:01:02;3;3;
76679;PMS5003;65597;51.520;-0.224;2023-03-14T16:03:27;2;2;
76679;PMS5003;65597;51.520;-0.224;2023-03-14T16:05:57;4;4;
76679;PMS5003;65597;51.520;-0.224;2023-03-14T16:08:18;4;4;
76679;PMS5003;65597;51.520;-0.224;2023-03-14T16:10:44;1;1;
76679;PMS5003;65597;51.520;-0.224;2023-03-14T16:13:09;3;3;
76679;PMS5003;65597;51.520;-0.224;2023-03-14T16:15:36;3;3;
76679;PMS5003;65597;51.520;-0.224;2023-03-14T16:18:00;1;1;
76679;PMS5003;65597;51.520;-0.224;2023-03-14T16:20:25;6;4;
76679;PMS5003;65597;51.520;-0.224;2023-03-14T16:22:51;2;2;
76679;PMS5003;65597;51.520;-0.224;2023-03-14T16:25:16;2;2;
76679;PMS5003;65597;51.520;-0.224;2023-03-14T16:27:44;1;1;
76679;PMS5003;65597;51.520;-0.224;2023-03-14T16:30:07;2;2;
76679;PMS5003;65597;51.520;-0.224;2023-03-14T16:32:32;1;1;
76679;PMS5003;65597;51.520;-0.224;2023-03-14T16:34:58;2;1;
76679;PMS5003;65597;51.520;-0.224;2023-03-14T16:37:23;1;1;
76679;PMS5003;65597;51.520;-0.224;2023-03-14T16:39:49;3;2;
76679;PMS5003;65597;51.520;-0.224;2023-03-14T16:42:15;1;1;
76679;PMS5003;65597;51.520;-0.224;2023-03-14T16:44:40;2;2;
76679;PMS5003;65597;51.520;-0.224;2023-03-14T16:47:05;3;1;
76679;PMS5003;65597;51.520;-0.224;2023-03-14T16:49:31;2;2;